South Willington, Connecticut
Current Conditions -  °F | °C
As of 5:02 AM on Tuesday 27 Jan 2015 (Local Time) from KIJD Reporting Station
Moderate Fog Moderate Fog  
Wind Chill:   Ceiling: 500
Heat Index: 17°   Visibility: 0.5mi
Dew Point: 13°   Wind: 13mph
Humidity: 84%   Direction: 350°N
Pressure: 29.59"   Gusts: 28mph
Location:  41.86°N, 72.3°W
Report Text: KIJD 271002Z AUTO 35011G24KT 1/2SM FZFG VV005 M08/M11 A2959 RMK AO2 T10831106 PWINO FZRANO $
Loading
Personal Weather Stations






























Interactive Weather Map New forecast layout! Learn more

10-Day Weather Forecast

Advertisements
Track Severe Weather on mobile